createdAt,value
2022-10-19T00:01:02.123Z,6.63
2022-10-19T00:03:53.529Z,19.87
2022-10-19T00:06:42.398Z,42.23
2022-10-19T00:09:31.237Z,18.80
2022-10-19T00:12:20.050Z,9.43
2022-10-19T00:15:09.366Z,10.20
2022-10-19T00:17:58.178Z,11.00
2022-10-19T00:20:48.398Z,10.23
2022-10-19T00:23:37.252Z,8.63
2022-10-19T00:26:26.091Z,8.90
2022-10-19T00:29:15.697Z,7.63
2022-10-19T00:32:04.550Z,7.93
2022-10-19T00:34:53.373Z,7.53
2022-10-19T00:37:43.558Z,6.77
2022-10-19T00:40:38.577Z,7.97
2022-10-19T00:43:28.254Z,7.27
2022-10-19T00:46:17.076Z,7.00
2022-10-19T00:49:10.650Z,6.23
2022-10-19T00:52:03.400Z,6.60
2022-10-19T00:54:54.443Z,6.60
2022-10-19T00:57:43.315Z,5.73
2022-10-19T01:00:33.831Z,6.20
2022-10-19T01:03:22.877Z,5.07
2022-10-19T01:06:12.011Z,5.20
2022-10-19T01:09:00.888Z,5.23
2022-10-19T01:11:55.658Z,5.03
2022-10-19T01:14:52.054Z,5.63
2022-10-19T01:17:46.425Z,5.00
2022-10-19T01:20:54.730Z,5.57
2022-10-19T01:24:02.346Z,5.40
2022-10-19T01:27:02.506Z,5.67
2022-10-19T01:30:03.930Z,5.20
2022-10-19T01:32:56.553Z,5.20
2022-10-19T01:35:47.866Z,5.73
2022-10-19T01:38:38.055Z,5.00
2022-10-19T01:41:30.007Z,4.97
2022-10-19T01:44:20.943Z,4.60
2022-10-19T01:47:13.775Z,5.57
2022-10-19T01:50:05.038Z,5.27
2022-10-19T01:52:55.240Z,5.20
2022-10-19T01:55:44.936Z,4.90
2022-10-19T01:58:36.510Z,5.97
2022-10-19T02:01:26.632Z,5.30
2022-10-19T02:04:18.880Z,5.00
2022-10-19T02:07:08.944Z,5.00
2022-10-19T02:09:57.775Z,4.87
2022-10-19T02:12:47.008Z,5.60
2022-10-19T02:15:37.150Z,5.07
2022-10-19T02:18:28.709Z,5.27
2022-10-19T02:21:19.167Z,5.97
2022-10-19T02:24:08.023Z,5.20
2022-10-19T02:26:57.498Z,5.00
2022-10-19T02:29:46.588Z,5.07
2022-10-19T02:32:35.832Z,5.87
2022-10-19T02:35:24.824Z,4.83
2022-10-19T02:38:16.590Z,4.63
2022-10-19T02:41:07.063Z,4.30
2022-10-19T02:43:58.585Z,4.73
2022-10-19T02:46:51.499Z,4.97
2022-10-19T02:49:40.562Z,4.50
2022-10-19T02:52:30.343Z,4.90
2022-10-19T02:55:20.697Z,4.53
2022-10-19T02:58:09.632Z,4.60
2022-10-19T03:00:58.490Z,4.20
2022-10-19T03:03:47.552Z,5.00
2022-10-19T03:06:36.395Z,4.60
2022-10-19T03:09:25.217Z,4.00
2022-10-19T03:12:15.940Z,4.40
2022-10-19T03:15:05.123Z,4.60
2022-10-19T03:17:54.606Z,4.43
2022-10-19T03:20:43.411Z,4.27
2022-10-19T03:23:32.251Z,4.50
2022-10-19T03:26:21.127Z,4.33
2022-10-19T03:29:11.338Z,4.97
2022-10-19T03:32:00.215Z,4.10
2022-10-19T03:34:49.060Z,6.20
2022-10-19T03:37:37.973Z,5.20
2022-10-19T03:40:26.873Z,6.03
2022-10-19T03:43:15.691Z,5.83
2022-10-19T03:46:05.868Z,5.80
2022-10-19T03:48:54.841Z,6.00
2022-10-19T03:51:44.066Z,6.07
2022-10-19T03:54:32.984Z,5.60
2022-10-19T03:57:21.834Z,6.67
2022-10-19T04:00:11.408Z,7.33
2022-10-19T04:03:01.603Z,8.60
2022-10-19T04:05:50.406Z,9.07
2022-10-19T04:08:39.291Z,9.20
2022-10-19T04:11:29.047Z,9.00
2022-10-19T04:14:31.590Z,10.63
2022-10-19T04:17:21.882Z,9.67
2022-10-19T04:20:13.238Z,9.53
2022-10-19T04:23:02.053Z,10.30
2022-10-19T04:25:50.878Z,8.90
2022-10-19T04:28:39.726Z,8.70
2022-10-19T04:31:28.893Z,8.43
2022-10-19T04:34:17.823Z,10.20
2022-10-19T04:37:07.978Z,9.17
2022-10-19T04:39:56.789Z,9.20
2022-10-19T04:42:45.646Z,10.27
2022-10-19T04:45:37.035Z,9.50
2022-10-19T04:48:25.888Z,9.23
2022-10-19T04:51:15.058Z,9.53
2022-10-19T04:54:05.538Z,9.27
2022-10-19T04:56:54.753Z,10.17
2022-10-19T04:59:43.578Z,10.60
2022-10-19T05:02:32.392Z,11.93
2022-10-19T05:05:21.254Z,14.63
2022-10-19T05:08:10.515Z,13.73
2022-10-19T05:11:03.478Z,14.47
2022-10-19T05:13:52.507Z,16.83
2022-10-19T05:16:41.428Z,14.03
2022-10-19T05:19:30.263Z,15.90
2022-10-19T05:22:19.106Z,15.47
2022-10-19T05:25:08.662Z,13.90
2022-10-19T05:27:58.861Z,15.13
2022-10-19T05:30:49.043Z,18.73
2022-10-19T05:33:38.275Z,16.10
2022-10-19T05:36:27.929Z,20.20
2022-10-19T05:39:17.838Z,19.33
2022-10-19T05:42:06.710Z,17.70
2022-10-19T05:44:56.913Z,19.03
2022-10-19T05:47:45.726Z,20.43
2022-10-19T05:50:34.571Z,19.67
2022-10-19T05:53:23.379Z,19.50
2022-10-19T05:56:15.188Z,19.07
2022-10-19T05:59:05.214Z,17.63
2022-10-19T06:01:55.463Z,18.10
2022-10-19T06:04:44.710Z,17.10
2022-10-19T06:07:33.910Z,17.73
2022-10-19T06:10:23.937Z,17.40
2022-10-19T06:13:13.120Z,18.60
2022-10-19T06:16:01.972Z,17.77
2022-10-19T06:18:52.195Z,16.73
2022-10-19T06:21:43.426Z,19.23
2022-10-19T06:24:34.766Z,17.00
2022-10-19T06:27:23.648Z,19.60
2022-10-19T06:30:13.182Z,19.33
2022-10-19T06:35:57.267Z,17.40
2022-10-19T06:38:46.283Z,18.33
2022-10-19T06:41:35.218Z,17.40
2022-10-19T06:44:24.045Z,16.70
2022-10-19T06:47:12.940Z,15.30
2022-10-19T06:50:01.782Z,15.53
2022-10-19T06:52:51.950Z,16.00
2022-10-19T06:55:40.759Z,15.67
2022-10-19T06:58:29.806Z,14.63
2022-10-19T07:01:18.757Z,13.23
2022-10-19T07:04:07.630Z,13.73
2022-10-19T07:06:56.455Z,12.43
2022-10-19T07:09:46.623Z,10.97
2022-10-19T07:12:35.477Z,11.00
2022-10-19T07:15:24.263Z,10.80
2022-10-19T07:18:13.217Z,10.03
2022-10-19T07:21:02.828Z,8.90
2022-10-19T07:23:51.822Z,9.53
2022-10-19T07:26:42.126Z,9.00
2022-10-19T07:29:30.954Z,9.87
2022-10-19T07:32:19.913Z,10.47
2022-10-19T07:35:09.114Z,10.20
2022-10-19T07:37:58.650Z,10.50
2022-10-19T07:40:47.652Z,10.33
2022-10-19T07:43:37.836Z,8.90
2022-10-19T07:46:29.035Z,9.37
2022-10-19T07:49:19.306Z,9.90
2022-10-19T07:52:08.183Z,9.47
2022-10-19T07:54:56.996Z,8.80
2022-10-19T07:57:48.171Z,8.40
2022-10-19T08:04:14.217Z,7.77
2022-10-19T08:06:41.004Z,6.30
2022-10-19T08:12:38.852Z,5.47
2022-10-19T08:15:28.643Z,5.40
2022-10-19T08:18:18.947Z,4.80
2022-10-19T08:21:07.939Z,6.93
2022-10-19T08:23:56.876Z,5.23
2022-10-19T08:26:45.776Z,5.47
2022-10-19T08:29:34.627Z,5.93
2022-10-19T08:32:23.456Z,5.40
2022-10-19T08:35:13.665Z,6.80
2022-10-19T08:38:02.987Z,6.47
2022-10-19T08:40:51.904Z,6.30
2022-10-19T08:43:42.744Z,6.07
2022-10-19T08:46:37.581Z,5.78
2022-10-19T08:49:28.569Z,5.93
2022-10-19T08:52:20.626Z,4.88
2022-10-19T08:55:13.094Z,5.47
2022-10-19T08:58:09.705Z,4.93
2022-10-19T09:01:02.055Z,5.15
2022-10-19T09:03:55.907Z,5.05
2022-10-19T09:06:49.749Z,5.60
2022-10-19T09:09:43.840Z,5.88
2022-10-19T09:12:39.626Z,4.68
2022-10-19T09:15:30.609Z,5.90
2022-10-19T09:18:21.569Z,4.85
2022-10-19T09:21:12.683Z,4.43
2022-10-19T09:24:06.018Z,5.85
2022-10-19T09:26:57.468Z,5.22
2022-10-19T09:29:49.531Z,4.50
2022-10-19T09:32:39.427Z,3.85
2022-10-19T09:35:30.427Z,3.80
2022-10-19T09:38:28.775Z,4.03
2022-10-19T09:41:19.440Z,3.30
2022-10-19T09:44:09.651Z,4.03
2022-10-19T09:47:03.273Z,3.08
2022-10-19T09:49:52.101Z,4.13
2022-10-19T09:52:41.768Z,3.15
2022-10-19T09:55:35.757Z,4.47
2022-10-19T09:58:29.204Z,3.33
2022-10-19T10:01:41.893Z,3.97
2022-10-19T10:04:31.707Z,3.30
2022-10-19T10:07:20.632Z,2.83
2022-10-19T10:10:13.478Z,2.50
2022-10-19T10:13:02.637Z,2.17
2022-10-19T10:15:53.074Z,1.70
2022-10-19T10:18:51.641Z,2.28
2022-10-19T10:21:48.511Z,1.52
2022-10-19T10:24:37.350Z,1.50
2022-10-19T10:27:30.242Z,1.13
2022-10-19T10:30:20.137Z,2.00
2022-10-19T10:33:16.041Z,1.73
2022-10-19T10:36:18.140Z,1.60
2022-10-19T10:39:08.507Z,1.38
2022-10-19T10:41:59.130Z,1.60
2022-10-19T10:44:49.997Z,1.92
2022-10-19T10:47:40.736Z,2.08
2022-10-19T10:50:33.495Z,2.05
2022-10-19T10:53:38.081Z,2.05
2022-10-19T10:56:27.765Z,2.20
2022-10-19T10:59:20.522Z,2.03
2022-10-19T11:02:15.615Z,1.95
2022-10-19T11:05:07.786Z,1.88
2022-10-19T11:07:58.447Z,1.40
2022-10-19T11:10:51.287Z,2.00
2022-10-19T11:13:43.513Z,2.28
2022-10-19T11:16:34.227Z,2.17
2022-10-19T11:19:24.439Z,2.30
2022-10-19T11:22:20.342Z,2.17
2022-10-19T11:25:21.562Z,1.50
2022-10-19T11:28:19.511Z,1.90
2022-10-19T11:31:11.427Z,1.75
2022-10-19T11:34:04.355Z,1.83
2022-10-19T11:36:55.470Z,1.48
2022-10-19T11:39:49.969Z,1.98
2022-10-19T11:42:49.031Z,1.45
2022-10-19T11:45:43.723Z,1.65
2022-10-19T11:48:54.730Z,1.77
2022-10-19T11:51:49.641Z,1.80
2022-10-19T11:54:46.571Z,1.55
2022-10-19T11:57:38.168Z,1.98
2022-10-19T12:00:38.659Z,1.60
2022-10-19T12:03:41.791Z,1.77
2022-10-19T12:06:34.014Z,1.42
2022-10-19T12:09:28.028Z,1.70
2022-10-19T12:12:25.109Z,1.67
2022-10-19T12:15:18.840Z,1.48
2022-10-19T12:18:12.233Z,1.63
2022-10-19T12:21:03.891Z,1.73
2022-10-19T12:23:53.319Z,1.58
2022-10-19T12:26:42.605Z,1.67
2022-10-19T12:29:33.491Z,1.58
2022-10-19T12:32:25.264Z,1.98
2022-10-19T12:35:27.367Z,1.80
2022-10-19T12:38:23.585Z,2.00
2022-10-19T12:41:16.128Z,1.23
2022-10-19T12:44:13.804Z,2.30
2022-10-19T12:47:09.987Z,1.50
2022-10-19T12:50:08.063Z,2.35
2022-10-19T12:53:02.158Z,1.48
2022-10-19T12:56:03.570Z,1.50
2022-10-19T12:58:55.329Z,1.20
2022-10-19T13:01:55.007Z,1.20
2022-10-19T13:04:54.288Z,1.52
2022-10-19T13:07:43.785Z,1.10
2022-10-19T13:10:35.865Z,1.10
2022-10-19T13:14:00.540Z,1.33
2022-10-19T13:17:10.569Z,1.33
2022-10-19T13:20:14.874Z,1.38
2022-10-19T13:23:22.590Z,3.08
2022-10-19T13:26:46.088Z,6.78
2022-10-19T13:29:49.254Z,4.20
2022-10-19T13:32:46.818Z,1.42
2022-10-19T13:35:37.212Z,1.27
2022-10-19T13:38:33.233Z,1.10
2022-10-19T13:41:26.967Z,1.17
2022-10-19T13:44:28.476Z,1.10
2022-10-19T13:47:31.982Z,1.45
2022-10-19T13:50:38.951Z,1.58
2022-10-19T13:53:43.937Z,1.80
2022-10-19T13:56:50.549Z,1.50
2022-10-19T14:00:00.514Z,1.25
2022-10-19T14:03:24.792Z,1.10
2022-10-19T14:06:28.626Z,1.88
2022-10-19T14:09:37.075Z,0.93
2022-10-19T14:12:30.710Z,1.00
2022-10-19T14:15:24.499Z,0.90
2022-10-19T14:18:24.479Z,0.90
2022-10-19T14:21:13.915Z,0.85
2022-10-19T14:24:08.691Z,1.10
2022-10-19T14:26:58.249Z,0.80
2022-10-19T14:29:54.159Z,0.90
2022-10-19T14:32:46.652Z,0.98
2022-10-19T14:35:47.554Z,0.93
2022-10-19T14:38:39.025Z,1.10
2022-10-19T14:41:32.245Z,1.07
2022-10-19T14:44:29.249Z,1.00
2022-10-19T14:47:27.513Z,0.77
2022-10-19T14:50:19.495Z,0.90
2022-10-19T14:53:20.950Z,0.80
2022-10-19T14:56:11.807Z,1.10
2022-10-19T14:59:02.751Z,1.00
2022-10-19T15:02:05.329Z,1.20
2022-10-19T15:04:57.332Z,1.00
2022-10-19T15:07:46.951Z,1.00
2022-10-19T15:10:44.003Z,1.10
2022-10-19T15:13:37.428Z,1.20
2022-10-19T15:16:34.162Z,1.63
2022-10-19T15:19:29.572Z,1.00
2022-10-19T15:22:19.458Z,1.60
2022-10-19T15:25:25.429Z,1.87
2022-10-19T15:28:25.642Z,1.30
2022-10-19T15:31:19.006Z,1.73
2022-10-19T15:34:22.729Z,1.40
2022-10-19T15:37:21.600Z,1.40
2022-10-19T15:40:15.130Z,1.70
2022-10-19T15:43:19.236Z,1.70
2022-10-19T15:46:25.097Z,1.60
2022-10-19T15:49:29.425Z,1.90
2022-10-19T15:52:24.942Z,1.77
2022-10-19T15:55:17.453Z,1.63
2022-10-19T15:58:08.874Z,2.40
2022-10-19T16:01:01.091Z,1.63
2022-10-19T16:03:55.097Z,2.10
2022-10-19T16:07:07.371Z,1.73
2022-10-19T16:10:04.218Z,2.40
2022-10-19T16:13:03.246Z,2.73
2022-10-19T16:16:06.817Z,2.43
2022-10-19T16:19:02.671Z,2.30
2022-10-19T16:22:03.421Z,2.37
2022-10-19T16:25:06.218Z,2.70
2022-10-19T16:27:59.304Z,2.93
2022-10-19T16:30:57.126Z,3.10
2022-10-19T16:33:46.663Z,2.60
2022-10-19T16:36:37.000Z,2.50
2022-10-19T16:39:29.391Z,2.77
2022-10-19T16:42:18.975Z,2.80
2022-10-19T16:45:08.747Z,2.40
2022-10-19T16:48:01.232Z,3.00
2022-10-19T16:51:17.698Z,2.90
2022-10-19T16:54:10.345Z,2.77
2022-10-19T16:57:08.626Z,2.90
2022-10-19T17:00:01.636Z,2.50
2022-10-19T17:02:56.122Z,2.70
2022-10-19T17:05:47.434Z,2.90
2022-10-19T17:08:56.689Z,2.83
2022-10-19T17:11:49.934Z,2.47
2022-10-19T17:14:42.690Z,2.83
2022-10-19T17:17:35.260Z,2.57
2022-10-19T17:20:28.898Z,3.03
2022-10-19T17:23:19.659Z,2.57
2022-10-19T17:26:13.581Z,3.17
2022-10-19T17:29:03.090Z,3.43
2022-10-19T17:31:53.821Z,3.00
2022-10-19T17:34:44.676Z,2.93
2022-10-19T17:37:40.892Z,2.90
2022-10-19T17:40:33.971Z,2.40
2022-10-19T17:43:28.970Z,3.20
2022-10-19T17:46:23.756Z,2.37
2022-10-19T17:49:15.700Z,2.80
2022-10-19T17:52:10.221Z,3.33
2022-10-19T17:55:12.094Z,3.43
2022-10-19T17:58:04.914Z,3.13
2022-10-19T18:01:02.548Z,3.40
2022-10-19T18:03:53.884Z,2.90
2022-10-19T18:06:44.873Z,2.97
2022-10-19T18:09:37.556Z,2.83
2022-10-19T18:12:28.870Z,3.40
2022-10-19T18:15:23.670Z,3.80
2022-10-19T18:18:13.255Z,2.83
2022-10-19T18:21:07.721Z,3.20
2022-10-19T18:24:02.135Z,3.37
2022-10-19T18:27:02.405Z,2.43
2022-10-19T18:29:58.977Z,3.00
2022-10-19T18:32:56.667Z,2.90
2022-10-19T18:35:48.857Z,3.00
2022-10-19T18:38:38.562Z,3.03
2022-10-19T18:41:32.254Z,3.47
2022-10-19T18:44:27.283Z,3.27
2022-10-19T18:47:18.013Z,2.83
2022-10-19T18:50:10.123Z,2.80
2022-10-19T18:53:02.744Z,3.73
2022-10-19T18:56:10.830Z,3.63
2022-10-19T18:59:08.526Z,2.80
2022-10-19T19:02:07.860Z,3.30
2022-10-19T19:05:08.569Z,3.33
2022-10-19T19:08:00.244Z,3.50
2022-10-19T19:10:54.035Z,4.63
2022-10-19T19:13:44.840Z,3.60
2022-10-19T19:16:38.293Z,4.53
2022-10-19T19:19:30.125Z,3.83
2022-10-19T19:22:19.905Z,4.37
2022-10-19T19:25:09.941Z,3.80
2022-10-19T19:28:03.153Z,3.80
2022-10-19T19:30:55.700Z,4.20
2022-10-19T19:33:48.170Z,3.77
2022-10-19T19:36:51.751Z,4.47
2022-10-19T19:39:44.883Z,4.53
2022-10-19T19:42:39.762Z,5.37
2022-10-19T19:45:29.392Z,4.73
2022-10-19T19:48:21.852Z,4.87
2022-10-19T19:51:16.239Z,4.67
2022-10-19T19:54:11.654Z,4.50
2022-10-19T19:57:05.016Z,4.70
2022-10-19T19:59:56.985Z,4.40
2022-10-19T20:02:48.508Z,5.70
2022-10-19T20:05:39.309Z,5.27
2022-10-19T20:08:40.866Z,5.33
2022-10-19T20:11:36.108Z,5.30
2022-10-19T20:14:40.299Z,6.20
2022-10-19T20:17:29.226Z,5.17
2022-10-19T20:20:18.851Z,5.70
2022-10-19T20:23:07.718Z,5.23
2022-10-19T20:25:57.893Z,5.43
2022-10-19T20:28:46.741Z,6.30
2022-10-19T20:31:39.469Z,5.80
2022-10-19T20:34:28.916Z,5.90
2022-10-19T20:37:17.746Z,6.20
2022-10-19T20:40:08.784Z,6.17
2022-10-19T20:42:59.189Z,6.87
2022-10-19T20:45:48.043Z,6.90
2022-10-19T20:48:36.978Z,7.17
2022-10-19T20:51:30.774Z,7.10
2022-10-19T20:54:21.541Z,7.10
2022-10-19T20:57:10.342Z,6.77
2022-10-19T21:00:00.488Z,6.70
2022-10-19T21:02:49.297Z,6.90
2022-10-19T21:05:39.214Z,6.47
2022-10-19T21:08:28.056Z,7.93
2022-10-19T21:11:18.409Z,6.87
2022-10-19T21:14:08.611Z,7.60
2022-10-19T21:16:59.386Z,7.90
2022-10-19T21:19:48.595Z,8.97
2022-10-19T21:22:39.906Z,7.20
2022-10-19T21:25:30.313Z,7.20
2022-10-19T21:28:19.163Z,7.60
2022-10-19T21:31:08.805Z,8.63
2022-10-19T21:34:02.997Z,7.27
2022-10-19T21:36:52.053Z,7.80
2022-10-19T21:39:40.907Z,7.73
2022-10-19T21:42:29.718Z,8.30
2022-10-19T21:45:29.946Z,8.10
2022-10-19T21:48:19.628Z,7.43
2022-10-19T21:51:23.502Z,8.17
2022-10-19T21:54:13.189Z,7.67
2022-10-19T21:57:03.049Z,7.93
2022-10-19T21:59:51.875Z,8.17
2022-10-19T22:02:40.714Z,8.10
2022-10-19T22:05:29.874Z,7.70
2022-10-19T22:08:20.175Z,8.77
2022-10-19T22:11:09.025Z,7.70
2022-10-19T22:13:58.312Z,7.60
2022-10-19T22:16:47.141Z,8.43
2022-10-19T22:19:36.000Z,8.53
2022-10-19T22:22:24.833Z,7.73
2022-10-19T22:25:15.001Z,7.73
2022-10-19T22:28:04.179Z,7.97
2022-10-19T22:30:56.168Z,7.90
2022-10-19T22:33:45.006Z,8.10
2022-10-19T22:36:33.821Z,8.30
2022-10-19T22:39:25.758Z,7.77
2022-10-19T22:42:18.049Z,7.33
2022-10-19T22:45:07.502Z,7.90
2022-10-19T22:47:56.382Z,7.70
2022-10-19T22:50:45.390Z,7.33
2022-10-19T22:53:34.325Z,8.00
2022-10-19T22:56:23.214Z,7.00
2022-10-19T22:59:13.409Z,7.30
2022-10-19T23:02:02.417Z,7.10
2022-10-19T23:04:51.277Z,7.63
2022-10-19T23:07:40.222Z,7.40
2022-10-19T23:10:29.069Z,7.63
2022-10-19T23:13:18.202Z,7.20
2022-10-19T23:16:09.218Z,6.80
2022-10-19T23:18:58.087Z,6.50
2022-10-19T23:21:46.881Z,6.63
2022-10-19T23:24:35.773Z,5.60
2022-10-19T23:27:24.597Z,5.80
2022-10-19T23:30:13.453Z,6.07
2022-10-19T23:33:03.754Z,4.93
2022-10-19T23:35:52.621Z,5.20
2022-10-19T23:38:41.819Z,5.23
2022-10-19T23:41:30.647Z,5.27
2022-10-19T23:44:19.475Z,4.63
2022-10-19T23:47:08.294Z,4.87
2022-10-19T23:49:58.502Z,5.03
2022-10-19T23:55:41.059Z,5.83
2022-10-19T23:58:30.439Z,6.00
